createdAt,value
2023-03-01T00:01:06.547Z,6.78
2023-03-01T00:03:34.019Z,8.18
2023-03-01T00:06:03.831Z,7.47
2023-03-01T00:08:34.127Z,7.57
2023-03-01T00:13:30.669Z,6.95
2023-03-01T00:15:57.803Z,6.93
2023-03-01T00:18:25.032Z,7.30
2023-03-01T00:20:53.247Z,7.38
2023-03-01T00:23:20.464Z,6.95
2023-03-01T00:25:47.711Z,7.35
2023-03-01T00:28:17.180Z,7.30
2023-03-01T00:30:44.366Z,6.75
2023-03-01T00:33:13.730Z,7.57
2023-03-01T00:35:40.949Z,6.97
2023-03-01T00:38:08.043Z,7.30
2023-03-01T00:40:36.146Z,7.32
2023-03-01T00:43:05.930Z,8.02
2023-03-01T00:45:34.193Z,7.35
2023-03-01T00:48:01.255Z,7.03
2023-03-01T00:50:28.346Z,7.38
2023-03-01T00:52:55.993Z,6.65
2023-03-01T00:55:26.092Z,7.15
2023-03-01T00:57:53.449Z,7.18
2023-03-01T01:00:25.020Z,7.43
2023-03-01T01:02:51.753Z,7.28
2023-03-01T01:05:21.859Z,7.05
2023-03-01T01:07:49.372Z,7.50
2023-03-01T01:10:17.933Z,7.13
2023-03-01T01:12:49.154Z,6.53
2023-03-01T01:15:17.451Z,7.28
2023-03-01T01:17:44.721Z,6.65
2023-03-01T01:20:12.141Z,6.65
2023-03-01T01:22:39.228Z,7.22
2023-03-01T01:25:06.509Z,6.88
2023-03-01T01:27:33.608Z,6.88
2023-03-01T01:30:00.672Z,8.00
2023-03-01T01:32:27.557Z,7.18
2023-03-01T01:34:54.265Z,7.05
2023-03-01T01:37:21.153Z,6.95
2023-03-01T01:39:47.948Z,7.00
2023-03-01T01:42:19.509Z,6.55
2023-03-01T01:44:49.221Z,7.22
2023-03-01T01:47:19.820Z,7.57
2023-03-01T01:49:57.076Z,6.82
2023-03-01T01:52:32.710Z,6.93
2023-03-01T01:55:15.811Z,7.15
2023-03-01T01:57:52.754Z,7.03
2023-03-01T02:00:23.171Z,6.88
2023-03-01T02:02:55.922Z,7.25
2023-03-01T02:05:38.118Z,7.35
2023-03-01T02:08:08.435Z,7.75
2023-03-01T02:10:36.004Z,6.95
2023-03-01T02:13:04.522Z,7.03
2023-03-01T02:15:36.140Z,6.93
2023-03-01T02:18:04.148Z,7.00
2023-03-01T02:20:30.771Z,8.00
2023-03-01T02:23:00.904Z,7.28
2023-03-01T02:26:00.470Z,7.70
2023-03-01T02:28:30.430Z,7.68
2023-03-01T02:31:15.715Z,7.88
2023-03-01T02:33:43.857Z,7.70
2023-03-01T02:36:16.182Z,6.68
2023-03-01T02:38:43.260Z,7.55
2023-03-01T02:41:12.527Z,8.20
2023-03-01T02:43:39.275Z,8.15
2023-03-01T02:46:18.598Z,7.47
2023-03-01T02:48:51.302Z,7.43
2023-03-01T02:51:24.755Z,7.68
2023-03-01T02:54:04.425Z,6.93
2023-03-01T02:56:31.474Z,7.75
2023-03-01T02:59:01.623Z,8.45
2023-03-01T03:01:37.484Z,8.00
2023-03-01T03:04:09.243Z,7.72
2023-03-01T03:06:38.632Z,7.78
2023-03-01T03:09:06.075Z,8.03
2023-03-01T03:11:33.351Z,7.45
2023-03-01T03:14:02.486Z,7.68
2023-03-01T03:16:30.931Z,8.25
2023-03-01T03:19:05.963Z,7.82
2023-03-01T03:21:33.948Z,7.95
2023-03-01T03:24:03.038Z,8.05
2023-03-01T03:26:30.747Z,7.68
2023-03-01T03:28:58.017Z,7.57
2023-03-01T03:31:27.348Z,7.20
2023-03-01T03:33:54.142Z,7.87
2023-03-01T03:36:23.505Z,7.75
2023-03-01T03:38:50.522Z,7.53
2023-03-01T03:41:17.662Z,8.00
2023-03-01T03:43:44.901Z,7.50
2023-03-01T03:46:12.747Z,7.38
2023-03-01T03:48:46.855Z,7.63
2023-03-01T03:51:15.660Z,7.88
2023-03-01T03:53:43.145Z,7.65
2023-03-01T03:56:13.205Z,7.18
2023-03-01T03:58:39.937Z,7.35
2023-03-01T04:01:06.741Z,7.93
2023-03-01T04:03:35.949Z,7.30
2023-03-01T04:06:03.541Z,8.30
2023-03-01T04:08:30.422Z,7.05
2023-03-01T04:11:22.992Z,7.65
2023-03-01T04:13:50.151Z,8.52
2023-03-01T04:16:17.910Z,8.50
2023-03-01T04:18:47.433Z,8.80
2023-03-01T04:21:14.598Z,9.27
2023-03-01T04:23:41.943Z,7.95
2023-03-01T04:26:11.344Z,8.40
2023-03-01T04:28:43.944Z,8.13
2023-03-01T04:31:18.387Z,8.30
2023-03-01T04:33:55.123Z,8.98
2023-03-01T04:36:30.370Z,8.52
2023-03-01T04:38:57.656Z,7.60
2023-03-01T04:41:26.465Z,8.23
2023-03-01T04:43:53.357Z,7.53
2023-03-01T04:46:21.740Z,8.25
2023-03-01T04:48:50.786Z,8.77
2023-03-01T04:51:19.277Z,7.82
2023-03-01T04:53:46.209Z,8.50
2023-03-01T04:56:14.753Z,8.02
2023-03-01T04:58:41.680Z,8.40
2023-03-01T05:01:17.564Z,8.65
2023-03-01T05:03:52.674Z,8.25
2023-03-01T05:06:20.651Z,7.55
2023-03-01T05:08:47.325Z,9.43
2023-03-01T05:11:14.142Z,8.20
2023-03-01T05:13:43.384Z,7.95
2023-03-01T05:16:13.470Z,8.82
2023-03-01T05:21:13.925Z,7.97
2023-03-01T05:23:40.755Z,8.13
2023-03-01T05:26:25.829Z,8.32
2023-03-01T05:28:57.770Z,7.72
2023-03-01T05:31:26.859Z,8.20
2023-03-01T05:33:53.844Z,7.82
2023-03-01T05:36:20.568Z,8.20
2023-03-01T05:38:47.241Z,8.27
2023-03-01T05:41:17.951Z,8.40
2023-03-01T05:43:45.920Z,8.05
2023-03-01T05:46:14.234Z,8.27
2023-03-01T05:48:41.147Z,8.18
2023-03-01T05:51:07.988Z,8.45
2023-03-01T05:53:37.056Z,8.57
2023-03-01T05:56:09.110Z,8.27
2023-03-01T05:58:39.673Z,7.85
2023-03-01T06:01:15.293Z,7.75
2023-03-01T06:03:42.199Z,8.65
2023-03-01T06:06:08.979Z,7.55
2023-03-01T06:08:35.653Z,8.65
2023-03-01T06:11:04.966Z,8.35
2023-03-01T06:13:31.653Z,8.17
2023-03-01T06:15:58.390Z,7.97
2023-03-01T06:18:25.106Z,8.68
2023-03-01T06:20:58.286Z,8.88
2023-03-01T06:23:25.811Z,8.98
2023-03-01T06:25:53.028Z,8.32
2023-03-01T06:28:20.309Z,8.23
2023-03-01T06:30:47.420Z,8.43
2023-03-01T06:33:14.602Z,8.60
2023-03-01T06:35:41.736Z,9.15
2023-03-01T06:38:08.824Z,8.18
2023-03-01T06:40:36.314Z,8.73
2023-03-01T06:43:03.505Z,8.18
2023-03-01T06:45:30.648Z,8.20
2023-03-01T06:48:10.406Z,8.93
2023-03-01T06:50:37.627Z,8.45
2023-03-01T06:53:04.740Z,7.93
2023-03-01T06:55:31.908Z,8.55
2023-03-01T06:58:02.542Z,10.02
2023-03-01T07:00:29.893Z,8.93
2023-03-01T07:02:59.670Z,8.65
2023-03-01T07:05:28.988Z,8.85
2023-03-01T07:08:01.403Z,8.87
2023-03-01T07:10:28.497Z,9.05
2023-03-01T07:12:58.942Z,8.75
2023-03-01T07:15:26.379Z,9.00
2023-03-01T07:17:53.531Z,8.00
2023-03-01T07:20:25.378Z,9.25
2023-03-01T07:22:53.456Z,9.23
2023-03-01T07:25:20.565Z,9.60
2023-03-01T07:27:51.969Z,9.05
2023-03-01T07:30:19.141Z,9.32
2023-03-01T07:32:46.672Z,8.75
2023-03-01T07:35:13.908Z,9.65
2023-03-01T07:37:43.637Z,10.10
2023-03-01T07:40:11.298Z,9.05
2023-03-01T07:42:38.412Z,9.20
2023-03-01T07:45:06.462Z,10.20
2023-03-01T07:47:35.779Z,8.90
2023-03-01T07:50:03.489Z,9.67
2023-03-01T07:52:30.658Z,10.45
2023-03-01T07:54:57.782Z,9.35
2023-03-01T07:57:24.732Z,10.02
2023-03-01T07:59:51.447Z,10.60
2023-03-01T08:02:20.472Z,9.07
2023-03-01T08:04:47.606Z,9.02
2023-03-01T08:07:14.715Z,8.68
2023-03-01T08:09:41.754Z,9.75
2023-03-01T08:12:09.283Z,9.80
2023-03-01T08:14:36.527Z,10.23
2023-03-01T08:17:04.165Z,10.48
2023-03-01T08:19:34.156Z,10.50
2023-03-01T08:22:01.329Z,9.65
2023-03-01T08:24:30.617Z,9.00
2023-03-01T08:26:57.317Z,9.87
2023-03-01T08:29:26.337Z,10.25
2023-03-01T08:31:53.152Z,9.93
2023-03-01T08:34:22.371Z,9.75
2023-03-01T08:36:49.282Z,9.80
2023-03-01T08:39:21.570Z,10.35
2023-03-01T08:41:48.636Z,11.85
2023-03-01T08:44:17.662Z,11.25
2023-03-01T08:46:48.016Z,11.02
2023-03-01T08:51:48.374Z,10.38
2023-03-01T08:54:21.124Z,9.98
2023-03-01T08:56:48.285Z,10.63
2023-03-01T08:59:19.032Z,9.95
2023-03-01T09:01:45.706Z,9.80
2023-03-01T09:04:13.591Z,10.70
2023-03-01T09:06:40.342Z,10.93
2023-03-01T09:09:16.473Z,10.05
2023-03-01T09:11:44.604Z,10.70
2023-03-01T09:14:15.681Z,10.43
2023-03-01T09:16:42.937Z,10.07
2023-03-01T09:19:09.701Z,9.65
2023-03-01T09:21:40.680Z,9.60
2023-03-01T09:24:14.657Z,9.93
2023-03-01T09:26:44.287Z,9.85
2023-03-01T09:29:11.328Z,8.82
2023-03-01T09:31:38.723Z,9.52
2023-03-01T09:34:08.339Z,9.10
2023-03-01T09:36:38.849Z,10.20
2023-03-01T09:39:06.947Z,9.50
2023-03-01T09:41:46.054Z,9.07
2023-03-01T09:44:45.708Z,9.73
2023-03-01T09:47:19.450Z,8.45
2023-03-01T09:50:01.115Z,8.13
2023-03-01T09:52:41.462Z,8.85
2023-03-01T09:55:17.602Z,8.90
2023-03-01T09:57:52.212Z,9.18
2023-03-01T10:00:40.654Z,7.70
2023-03-01T10:03:40.042Z,8.50
2023-03-01T10:06:23.979Z,9.17
2023-03-01T10:09:17.562Z,9.23
2023-03-01T10:11:49.604Z,8.77
2023-03-01T10:14:24.913Z,9.20
2023-03-01T10:16:55.009Z,10.25
2023-03-01T10:19:28.839Z,8.40
2023-03-01T10:21:56.879Z,8.90
2023-03-01T10:24:26.311Z,9.23
2023-03-01T10:27:01.706Z,8.25
2023-03-01T10:29:35.456Z,9.25
2023-03-01T10:32:10.361Z,8.88
2023-03-01T10:34:39.785Z,8.82
2023-03-01T10:37:19.233Z,8.52
2023-03-01T10:39:57.012Z,8.45
2023-03-01T10:42:27.760Z,9.05
2023-03-01T10:44:54.848Z,8.95
2023-03-01T10:47:23.253Z,8.85
2023-03-01T10:50:13.097Z,8.20
2023-03-01T10:52:42.915Z,9.05
2023-03-01T10:55:10.003Z,8.07
2023-03-01T10:57:44.256Z,8.65
2023-03-01T11:00:20.770Z,8.07
2023-03-01T11:02:54.361Z,8.55
2023-03-01T11:05:24.940Z,8.77
2023-03-01T11:07:57.394Z,7.88
2023-03-01T11:10:25.847Z,8.80
2023-03-01T11:12:58.477Z,8.48
2023-03-01T11:15:27.402Z,7.70
2023-03-01T11:18:09.079Z,8.63
2023-03-01T11:20:40.939Z,8.05
2023-03-01T11:23:11.825Z,8.68
2023-03-01T11:25:40.985Z,8.32
2023-03-01T11:28:09.629Z,8.25
2023-03-01T11:31:08.828Z,7.97
2023-03-01T11:33:49.187Z,8.35
2023-03-01T11:36:25.461Z,7.60
2023-03-01T11:38:53.117Z,7.93
2023-03-01T11:41:23.027Z,8.18
2023-03-01T11:43:53.625Z,7.93
2023-03-01T11:46:33.207Z,7.47
2023-03-01T11:49:11.835Z,7.32
2023-03-01T11:51:59.440Z,6.85
2023-03-01T11:54:49.570Z,7.28
2023-03-01T11:57:43.318Z,6.78
2023-03-01T12:00:11.503Z,6.40
2023-03-01T12:02:38.564Z,6.65
2023-03-01T12:05:24.334Z,6.05
2023-03-01T12:08:11.765Z,6.38
2023-03-01T12:10:50.893Z,6.60
2023-03-01T12:13:24.012Z,6.30
2023-03-01T12:15:51.094Z,6.25
2023-03-01T12:18:28.205Z,6.50
2023-03-01T12:21:19.967Z,6.32
2023-03-01T12:24:13.206Z,5.88
2023-03-01T12:26:48.705Z,6.13
2023-03-01T12:29:15.819Z,5.75
2023-03-01T12:31:48.253Z,5.63
2023-03-01T12:34:34.284Z,5.45
2023-03-01T12:37:04.351Z,4.95
2023-03-01T12:42:13.418Z,6.53
2023-03-01T12:44:44.895Z,5.53
2023-03-01T12:47:12.026Z,6.07
2023-03-01T12:49:44.834Z,5.65
2023-03-01T12:52:12.043Z,5.60
2023-03-01T12:54:39.183Z,5.65
2023-03-01T12:57:38.075Z,5.78
2023-03-01T13:00:19.609Z,5.97
2023-03-01T13:02:50.423Z,6.72
2023-03-01T13:05:20.322Z,5.82
2023-03-01T13:08:05.914Z,5.45
2023-03-01T13:10:41.063Z,4.80
2023-03-01T13:13:21.813Z,5.57
2023-03-01T13:15:49.680Z,5.03
2023-03-01T13:18:20.307Z,5.00
2023-03-01T13:20:48.924Z,4.40
2023-03-01T13:23:22.420Z,4.85
2023-03-01T13:25:58.588Z,5.45
2023-03-01T13:28:43.742Z,4.40
2023-03-01T13:31:16.914Z,4.72
2023-03-01T13:33:46.300Z,5.75
2023-03-01T13:36:30.326Z,5.28
2023-03-01T13:39:00.549Z,4.63
2023-03-01T13:41:40.159Z,4.47
2023-03-01T13:44:14.661Z,5.10
2023-03-01T13:46:41.940Z,4.88
2023-03-01T13:49:13.460Z,5.20
2023-03-01T13:51:40.607Z,5.07
2023-03-01T13:54:12.424Z,5.10
2023-03-01T13:56:39.993Z,4.75
2023-03-01T13:59:18.804Z,4.40
2023-03-01T14:01:53.199Z,4.00
2023-03-01T14:04:26.713Z,4.70
2023-03-01T14:06:54.139Z,4.68
2023-03-01T14:09:26.753Z,4.50
2023-03-01T14:12:08.967Z,4.50
2023-03-01T14:14:48.151Z,4.07
2023-03-01T14:17:36.639Z,4.77
2023-03-01T14:20:09.904Z,4.18
2023-03-01T14:22:37.594Z,4.55
2023-03-01T14:25:09.889Z,3.90
2023-03-01T14:27:40.380Z,4.32
2023-03-01T14:30:42.548Z,4.43
2023-03-01T14:33:31.546Z,3.95
2023-03-01T14:36:25.600Z,4.25
2023-03-01T14:38:52.741Z,3.95
2023-03-01T14:41:23.174Z,3.92
2023-03-01T14:43:56.835Z,3.85
2023-03-01T14:46:26.271Z,3.75
2023-03-01T14:48:54.889Z,3.42
2023-03-01T14:51:22.253Z,3.40
2023-03-01T14:53:51.760Z,3.95
2023-03-01T14:56:19.821Z,3.97
2023-03-01T14:58:50.190Z,3.45
2023-03-01T15:01:18.446Z,3.42
2023-03-01T15:03:46.907Z,2.88
2023-03-01T15:06:16.568Z,3.80
2023-03-01T15:11:33.973Z,3.65
2023-03-01T15:14:01.563Z,3.30
2023-03-01T15:16:28.932Z,3.72
2023-03-01T15:18:57.601Z,3.50
2023-03-01T15:21:29.949Z,3.45
2023-03-01T15:24:02.103Z,3.53
2023-03-01T15:26:31.145Z,3.95
2023-03-01T15:28:59.782Z,4.78
2023-03-01T15:31:28.524Z,3.58
2023-03-01T15:34:09.685Z,4.00
2023-03-01T15:36:43.068Z,3.92
2023-03-01T15:39:29.254Z,3.20
2023-03-01T15:41:56.424Z,3.60
2023-03-01T15:44:35.030Z,3.63
2023-03-01T15:47:24.379Z,3.92
2023-03-01T15:49:56.089Z,3.45
2023-03-01T15:52:29.676Z,3.65
2023-03-01T15:55:10.304Z,3.60
2023-03-01T15:57:37.410Z,4.00
2023-03-01T16:00:12.172Z,3.72
2023-03-01T16:02:39.720Z,3.50
2023-03-01T16:05:09.934Z,3.28
2023-03-01T16:07:40.610Z,3.85
2023-03-01T16:10:08.271Z,3.42
2023-03-01T16:12:37.588Z,3.40
2023-03-01T16:15:05.325Z,3.63
2023-03-01T16:17:32.400Z,3.55
2023-03-01T16:19:59.618Z,3.10
2023-03-01T16:22:28.138Z,3.15
2023-03-01T16:24:55.222Z,3.53
2023-03-01T16:27:21.966Z,3.25
2023-03-01T16:29:50.874Z,3.60
2023-03-01T16:32:18.030Z,3.28
2023-03-01T16:34:50.253Z,3.20
2023-03-01T16:37:17.985Z,3.35
2023-03-01T16:39:48.028Z,3.63
2023-03-01T16:44:44.573Z,3.40
2023-03-01T16:47:11.708Z,3.42
2023-03-01T16:49:43.585Z,3.47
2023-03-01T16:52:10.874Z,3.30
2023-03-01T16:54:38.008Z,3.80
2023-03-01T16:57:05.612Z,3.50
2023-03-01T16:59:32.720Z,3.30
2023-03-01T17:02:02.377Z,3.22
2023-03-01T17:04:31.689Z,4.20
2023-03-01T17:06:58.854Z,3.70
2023-03-01T17:09:25.976Z,3.58
2023-03-01T17:11:53.149Z,3.63
2023-03-01T17:14:20.236Z,3.65
2023-03-01T17:16:47.630Z,3.20
2023-03-01T17:19:18.767Z,3.78
2023-03-01T17:21:46.086Z,3.30
2023-03-01T17:24:16.189Z,3.75
2023-03-01T17:26:43.360Z,3.58
2023-03-01T17:29:10.629Z,3.95
2023-03-01T17:31:40.089Z,3.88
2023-03-01T17:34:07.243Z,4.18
2023-03-01T17:36:44.174Z,4.35
2023-03-01T17:39:11.980Z,4.22
2023-03-01T17:41:39.115Z,3.78
2023-03-01T17:44:06.267Z,4.32
2023-03-01T17:46:33.512Z,3.55
2023-03-01T17:49:00.678Z,5.20
2023-03-01T17:51:30.413Z,3.95
2023-03-01T17:53:57.858Z,4.25
2023-03-01T17:56:28.338Z,4.43
2023-03-01T17:58:55.487Z,4.40
2023-03-01T18:01:23.490Z,4.05
2023-03-01T18:03:54.359Z,4.35
2023-03-01T18:06:23.681Z,4.80
2023-03-01T18:08:51.202Z,4.70
2023-03-01T18:11:21.923Z,9.27
2023-03-01T18:13:51.399Z,4.95
2023-03-01T18:16:19.777Z,4.25
2023-03-01T18:18:49.386Z,4.82
2023-03-01T18:21:17.351Z,4.63
2023-03-01T18:23:44.494Z,4.72
2023-03-01T18:26:13.067Z,3.88
2023-03-01T18:28:40.226Z,4.22
2023-03-01T18:31:13.877Z,4.07
2023-03-01T18:33:41.329Z,4.78
2023-03-01T18:36:16.666Z,3.92
2023-03-01T18:38:44.025Z,4.70
2023-03-01T18:41:11.135Z,4.13
2023-03-01T18:43:38.372Z,4.15
2023-03-01T18:46:05.849Z,4.28
2023-03-01T18:48:33.035Z,4.07
2023-03-01T18:51:08.087Z,4.60
2023-03-01T18:53:35.279Z,4.68
2023-03-01T18:56:02.516Z,4.50
2023-03-01T18:58:29.824Z,4.80
2023-03-01T19:01:01.355Z,4.10
2023-03-01T19:03:28.919Z,4.80
2023-03-01T19:05:56.981Z,5.35
2023-03-01T19:08:24.188Z,5.32
2023-03-01T19:11:01.544Z,5.18
2023-03-01T19:13:28.771Z,5.53
2023-03-01T19:16:18.974Z,4.72
2023-03-01T19:21:21.284Z,4.45
2023-03-01T19:23:49.156Z,5.00
2023-03-01T19:26:18.000Z,5.85
2023-03-01T19:28:45.491Z,4.50
2023-03-01T19:31:14.190Z,6.18
2023-03-01T19:33:41.729Z,7.28
2023-03-01T19:36:09.827Z,6.35
2023-03-01T19:38:37.768Z,6.65
2023-03-01T19:41:06.145Z,6.13
2023-03-01T19:43:33.447Z,5.78
2023-03-01T19:46:00.663Z,5.82
2023-03-01T19:48:28.351Z,6.68
2023-03-01T19:50:58.525Z,5.28
2023-03-01T19:55:59.173Z,4.97
2023-03-01T19:58:32.795Z,5.07
2023-03-01T20:01:00.650Z,5.25
2023-03-01T20:03:30.921Z,5.47
2023-03-01T20:05:58.514Z,5.13
2023-03-01T20:08:26.131Z,5.78
2023-03-01T20:10:53.312Z,4.80
2023-03-01T20:13:23.416Z,4.75
2023-03-01T20:15:52.787Z,5.63
2023-03-01T20:18:19.928Z,5.18
2023-03-01T20:20:50.267Z,5.25
2023-03-01T20:23:18.200Z,5.15
2023-03-01T20:25:46.044Z,5.35
2023-03-01T20:28:12.870Z,5.13
2023-03-01T20:30:43.497Z,5.50
2023-03-01T20:33:11.302Z,5.57
2023-03-01T20:35:46.106Z,4.82
2023-03-01T20:38:12.809Z,6.75
2023-03-01T20:40:39.561Z,5.53
2023-03-01T20:43:06.692Z,6.25
2023-03-01T20:45:33.794Z,7.88
2023-03-01T20:48:04.990Z,6.95
2023-03-01T20:50:31.716Z,7.75
2023-03-01T20:53:02.831Z,8.10
2023-03-01T20:55:29.547Z,8.07
2023-03-01T20:57:58.584Z,7.40
2023-03-01T21:00:27.286Z,8.05
2023-03-01T21:02:54.867Z,8.43
2023-03-01T21:05:22.707Z,7.75
2023-03-01T21:07:50.899Z,7.40
2023-03-01T21:10:19.927Z,8.15
2023-03-01T21:12:46.648Z,7.75
2023-03-01T21:15:27.043Z,7.03
2023-03-01T21:17:55.692Z,8.07
2023-03-01T21:20:24.663Z,7.82
2023-03-01T21:22:51.398Z,7.22
2023-03-01T21:25:18.145Z,8.10
2023-03-01T21:27:45.407Z,7.93
2023-03-01T21:30:12.814Z,8.02
2023-03-01T21:32:39.520Z,7.28
2023-03-01T21:35:06.573Z,7.38
2023-03-01T21:37:33.310Z,7.20
2023-03-01T21:40:00.053Z,7.20
2023-03-01T21:42:26.739Z,7.22
2023-03-01T21:44:53.424Z,7.22
2023-03-01T21:47:23.153Z,7.80
2023-03-01T21:49:49.847Z,7.25
2023-03-01T21:52:16.855Z,6.78
2023-03-01T21:54:44.583Z,7.15
2023-03-01T21:57:12.124Z,7.75
2023-03-01T21:59:39.123Z,7.43
2023-03-01T22:02:05.986Z,8.73
2023-03-01T22:04:32.851Z,7.63
2023-03-01T22:06:59.945Z,8.15
2023-03-01T22:09:26.738Z,8.13
2023-03-01T22:11:58.693Z,8.77
2023-03-01T22:14:27.612Z,8.52
2023-03-01T22:16:57.430Z,9.60
2023-03-01T22:19:24.363Z,8.45
2023-03-01T22:21:52.289Z,8.45
2023-03-01T22:24:24.193Z,8.68
2023-03-01T22:26:52.190Z,8.70
2023-03-01T22:29:27.338Z,9.10
2023-03-01T22:31:55.883Z,7.85
2023-03-01T22:34:22.864Z,8.05
2023-03-01T22:36:52.358Z,8.40
2023-03-01T22:39:20.466Z,8.63
2023-03-01T22:41:48.881Z,8.45
2023-03-01T22:44:19.427Z,7.93
2023-03-01T22:46:47.129Z,8.90
2023-03-01T22:49:14.474Z,9.05
2023-03-01T22:51:42.587Z,9.07
2023-03-01T22:54:13.231Z,8.70
2023-03-01T22:56:43.053Z,9.75
2023-03-01T22:59:12.552Z,9.40
2023-03-01T23:01:40.497Z,9.45
2023-03-01T23:04:07.932Z,9.23
2023-03-01T23:06:35.621Z,9.80
2023-03-01T23:09:06.836Z,9.10
2023-03-01T23:11:33.977Z,8.30
2023-03-01T23:14:01.050Z,9.27
2023-03-01T23:16:30.642Z,9.18
2023-03-01T23:19:01.080Z,9.35
2023-03-01T23:23:55.627Z,9.45
2023-03-01T23:26:22.859Z,9.43
2023-03-01T23:28:50.791Z,8.88
2023-03-01T23:31:18.106Z,9.35
2023-03-01T23:33:45.965Z,8.20
2023-03-01T23:36:26.751Z,9.18
2023-03-01T23:38:56.336Z,9.25
2023-03-01T23:41:24.820Z,8.63
2023-03-01T23:43:55.827Z,8.90
2023-03-01T23:46:26.227Z,8.55
2023-03-01T23:48:54.199Z,9.10
2023-03-01T23:51:21.742Z,9.88
2023-03-01T23:53:55.709Z,9.13
2023-03-01T23:56:27.142Z,8.65
2023-03-01T23:58:58.583Z,9.75
